sensor_id;sensor_type;location;lat;lon;timestamp;P1;durP1;ratioP1;P2;durP2;ratioP2
43813;SDS011;29669;55.706;37.656;2023-05-07T00:00:24;3.45;;;2.72;;
43813;SDS011;29669;55.706;37.656;2023-05-07T00:02:52;4.15;;;2.65;;
43813;SDS011;29669;55.706;37.656;2023-05-07T00:05:20;5.78;;;3.17;;
43813;SDS011;29669;55.706;37.656;2023-05-07T00:07:48;8.73;;;2.85;;
43813;SDS011;29669;55.706;37.656;2023-05-07T00:10:15;4.00;;;2.75;;
43813;SDS011;29669;55.706;37.656;2023-05-07T00:12:43;3.60;;;2.80;;
43813;SDS011;29669;55.706;37.656;2023-05-07T00:15:11;5.00;;;2.60;;
43813;SDS011;29669;55.706;37.656;2023-05-07T00:17:39;9.57;;;2.75;;
43813;SDS011;29669;55.706;37.656;2023-05-07T00:20:06;4.47;;;3.10;;
43813;SDS011;29669;55.706;37.656;2023-05-07T00:22:34;7.78;;;2.60;;
43813;SDS011;29669;55.706;37.656;2023-05-07T00:25:02;3.13;;;2.42;;
43813;SDS011;29669;55.706;37.656;2023-05-07T00:27:31;3.20;;;2.50;;
43813;SDS011;29669;55.706;37.656;2023-05-07T00:29:59;4.45;;;2.90;;
43813;SDS011;29669;55.706;37.656;2023-05-07T00:32:26;4.50;;;2.20;;
43813;SDS011;29669;55.706;37.656;2023-05-07T00:34:54;5.72;;;3.40;;
43813;SDS011;29669;55.706;37.656;2023-05-07T00:37:22;4.75;;;3.22;;
43813;SDS011;29669;55.706;37.656;2023-05-07T00:39:49;3.45;;;2.95;;
43813;SDS011;29669;55.706;37.656;2023-05-07T00:42:17;2.97;;;2.42;;
43813;SDS011;29669;55.706;37.656;2023-05-07T00:44:45;6.63;;;3.30;;
43813;SDS011;29669;55.706;37.656;2023-05-07T00:47:13;4.38;;;2.45;;
43813;SDS011;29669;55.706;37.656;2023-05-07T00:49:42;3.05;;;2.20;;
43813;SDS011;29669;55.706;37.656;2023-05-07T00:52:12;5.88;;;3.10;;
43813;SDS011;29669;55.706;37.656;2023-05-07T00:54:41;4.80;;;3.13;;
43813;SDS011;29669;55.706;37.656;2023-05-07T00:57:09;4.38;;;2.78;;
43813;SDS011;29669;55.706;37.656;2023-05-07T00:59:41;3.53;;;2.67;;
43813;SDS011;29669;55.706;37.656;2023-05-07T01:02:09;5.72;;;2.90;;
43813;SDS011;29669;55.706;37.656;2023-05-07T01:04:37;3.88;;;2.35;;
43813;SDS011;29669;55.706;37.656;2023-05-07T01:07:05;4.97;;;2.38;;
43813;SDS011;29669;55.706;37.656;2023-05-07T01:09:33;6.55;;;3.45;;
43813;SDS011;29669;55.706;37.656;2023-05-07T01:12:03;2.78;;;1.98;;
43813;SDS011;29669;55.706;37.656;2023-05-07T01:14:31;5.30;;;3.17;;
43813;SDS011;29669;55.706;37.656;2023-05-07T01:17:00;3.80;;;2.20;;
43813;SDS011;29669;55.706;37.656;2023-05-07T01:19:28;7.50;;;3.83;;
43813;SDS011;29669;55.706;37.656;2023-05-07T01:22:03;4.85;;;2.78;;
43813;SDS011;29669;55.706;37.656;2023-05-07T01:24:44;5.50;;;2.80;;
43813;SDS011;29669;55.706;37.656;2023-05-07T01:27:14;4.85;;;3.08;;
43813;SDS011;29669;55.706;37.656;2023-05-07T01:29:41;4.45;;;3.05;;
43813;SDS011;29669;55.706;37.656;2023-05-07T01:32:09;5.28;;;2.78;;
43813;SDS011;29669;55.706;37.656;2023-05-07T01:34:39;4.75;;;3.25;;
43813;SDS011;29669;55.706;37.656;2023-05-07T01:37:07;6.22;;;3.10;;
43813;SDS011;29669;55.706;37.656;2023-05-07T01:39:35;4.85;;;2.88;;
43813;SDS011;29669;55.706;37.656;2023-05-07T01:42:06;3.67;;;2.47;;
43813;SDS011;29669;55.706;37.656;2023-05-07T01:44:34;5.32;;;2.75;;
43813;SDS011;29669;55.706;37.656;2023-05-07T01:47:02;6.75;;;3.72;;
43813;SDS011;29669;55.706;37.656;2023-05-07T01:49:30;6.00;;;2.85;;
43813;SDS011;29669;55.706;37.656;2023-05-07T01:51:58;4.45;;;2.35;;
43813;SDS011;29669;55.706;37.656;2023-05-07T01:54:26;5.05;;;3.38;;
43813;SDS011;29669;55.706;37.656;2023-05-07T01:56:58;5.70;;;2.42;;
43813;SDS011;29669;55.706;37.656;2023-05-07T01:59:27;4.35;;;2.72;;
43813;SDS011;29669;55.706;37.656;2023-05-07T02:01:54;7.88;;;2.78;;
43813;SDS011;29669;55.706;37.656;2023-05-07T02:04:22;7.68;;;3.13;;
43813;SDS011;29669;55.706;37.656;2023-05-07T02:06:51;6.88;;;2.97;;
43813;SDS011;29669;55.706;37.656;2023-05-07T02:09:20;3.78;;;2.45;;
43813;SDS011;29669;55.706;37.656;2023-05-07T02:11:50;4.30;;;2.63;;
43813;SDS011;29669;55.706;37.656;2023-05-07T02:14:19;3.75;;;2.88;;
43813;SDS011;29669;55.706;37.656;2023-05-07T02:16:47;5.03;;;2.28;;
43813;SDS011;29669;55.706;37.656;2023-05-07T02:19:15;4.53;;;2.75;;
43813;SDS011;29669;55.706;37.656;2023-05-07T02:21:43;5.18;;;3.30;;
43813;SDS011;29669;55.706;37.656;2023-05-07T02:24:11;4.93;;;3.60;;
43813;SDS011;29669;55.706;37.656;2023-05-07T02:26:41;5.65;;;3.33;;
43813;SDS011;29669;55.706;37.656;2023-05-07T02:29:09;3.65;;;2.63;;
43813;SDS011;29669;55.706;37.656;2023-05-07T02:31:38;3.00;;;2.65;;
43813;SDS011;29669;55.706;37.656;2023-05-07T02:34:05;6.03;;;3.58;;
43813;SDS011;29669;55.706;37.656;2023-05-07T02:36:33;6.63;;;3.53;;
43813;SDS011;29669;55.706;37.656;2023-05-07T02:39:06;3.63;;;2.35;;
43813;SDS011;29669;55.706;37.656;2023-05-07T02:41:34;6.03;;;3.40;;
43813;SDS011;29669;55.706;37.656;2023-05-07T02:44:02;2.17;;;1.73;;
43813;SDS011;29669;55.706;37.656;2023-05-07T02:46:30;4.47;;;2.65;;
43813;SDS011;29669;55.706;37.656;2023-05-07T02:49:03;3.63;;;2.00;;
43813;SDS011;29669;55.706;37.656;2023-05-07T02:51:31;4.95;;;3.10;;
43813;SDS011;29669;55.706;37.656;2023-05-07T02:54:02;4.20;;;2.55;;
43813;SDS011;29669;55.706;37.656;2023-05-07T02:56:31;5.22;;;2.65;;
43813;SDS011;29669;55.706;37.656;2023-05-07T02:58:59;5.85;;;3.85;;
43813;SDS011;29669;55.706;37.656;2023-05-07T03:01:31;4.30;;;2.97;;
43813;SDS011;29669;55.706;37.656;2023-05-07T03:04:04;5.28;;;2.95;;
43813;SDS011;29669;55.706;37.656;2023-05-07T03:06:32;4.55;;;3.60;;
43813;SDS011;29669;55.706;37.656;2023-05-07T03:09:00;5.25;;;3.63;;
43813;SDS011;29669;55.706;37.656;2023-05-07T03:11:28;8.82;;;3.85;;
43813;SDS011;29669;55.706;37.656;2023-05-07T03:13:57;6.40;;;3.85;;
43813;SDS011;29669;55.706;37.656;2023-05-07T03:16:25;6.75;;;3.70;;
43813;SDS011;29669;55.706;37.656;2023-05-07T03:18:53;7.80;;;4.20;;
43813;SDS011;29669;55.706;37.656;2023-05-07T03:21:21;6.22;;;4.10;;
43813;SDS011;29669;55.706;37.656;2023-05-07T03:23:49;9.00;;;4.85;;
43813;SDS011;29669;55.706;37.656;2023-05-07T03:26:17;5.28;;;4.05;;
43813;SDS011;29669;55.706;37.656;2023-05-07T03:28:45;8.55;;;4.72;;
43813;SDS011;29669;55.706;37.656;2023-05-07T03:31:15;8.73;;;3.80;;
43813;SDS011;29669;55.706;37.656;2023-05-07T03:33:52;9.52;;;4.18;;
43813;SDS011;29669;55.706;37.656;2023-05-07T03:36:23;5.10;;;3.75;;
43813;SDS011;29669;55.706;37.656;2023-05-07T03:38:51;6.47;;;3.95;;
43813;SDS011;29669;55.706;37.656;2023-05-07T03:41:22;4.25;;;3.58;;
43813;SDS011;29669;55.706;37.656;2023-05-07T03:43:50;4.63;;;3.60;;
43813;SDS011;29669;55.706;37.656;2023-05-07T03:46:18;5.68;;;3.13;;
43813;SDS011;29669;55.706;37.656;2023-05-07T03:48:46;6.97;;;3.58;;
43813;SDS011;29669;55.706;37.656;2023-05-07T03:51:14;5.97;;;4.35;;
43813;SDS011;29669;55.706;37.656;2023-05-07T03:53:42;6.00;;;3.67;;
43813;SDS011;29669;55.706;37.656;2023-05-07T03:56:11;9.70;;;3.67;;
43813;SDS011;29669;55.706;37.656;2023-05-07T03:58:40;4.63;;;2.88;;
43813;SDS011;29669;55.706;37.656;2023-05-07T04:01:10;6.78;;;3.28;;
43813;SDS011;29669;55.706;37.656;2023-05-07T04:03:38;4.15;;;2.38;;
43813;SDS011;29669;55.706;37.656;2023-05-07T04:06:06;5.57;;;3.75;;
43813;SDS011;29669;55.706;37.656;2023-05-07T04:08:35;3.95;;;3.35;;
43813;SDS011;29669;55.706;37.656;2023-05-07T04:11:04;5.47;;;3.40;;
43813;SDS011;29669;55.706;37.656;2023-05-07T04:13:33;5.50;;;3.42;;
43813;SDS011;29669;55.706;37.656;2023-05-07T04:16:03;4.63;;;3.10;;
43813;SDS011;29669;55.706;37.656;2023-05-07T04:18:35;6.57;;;3.70;;
43813;SDS011;29669;55.706;37.656;2023-05-07T04:21:03;6.13;;;2.95;;
43813;SDS011;29669;55.706;37.656;2023-05-07T04:23:33;4.50;;;2.80;;
43813;SDS011;29669;55.706;37.656;2023-05-07T04:26:03;6.07;;;3.05;;
43813;SDS011;29669;55.706;37.656;2023-05-07T04:28:38;4.10;;;2.50;;
43813;SDS011;29669;55.706;37.656;2023-05-07T04:31:07;3.78;;;1.95;;
43813;SDS011;29669;55.706;37.656;2023-05-07T04:33:37;3.40;;;2.53;;
43813;SDS011;29669;55.706;37.656;2023-05-07T04:36:07;5.03;;;2.78;;
43813;SDS011;29669;55.706;37.656;2023-05-07T04:38:42;4.00;;;2.65;;
43813;SDS011;29669;55.706;37.656;2023-05-07T04:41:12;3.50;;;2.72;;
43813;SDS011;29669;55.706;37.656;2023-05-07T04:43:41;3.17;;;2.45;;
43813;SDS011;29669;55.706;37.656;2023-05-07T04:46:10;1.90;;;1.45;;
43813;SDS011;29669;55.706;37.656;2023-05-07T04:48:39;10.98;;;2.72;;
43813;SDS011;29669;55.706;37.656;2023-05-07T04:51:07;4.20;;;2.53;;
43813;SDS011;29669;55.706;37.656;2023-05-07T04:53:35;5.95;;;2.42;;
43813;SDS011;29669;55.706;37.656;2023-05-07T04:56:03;4.20;;;2.50;;
43813;SDS011;29669;55.706;37.656;2023-05-07T04:58:37;3.75;;;2.28;;
43813;SDS011;29669;55.706;37.656;2023-05-07T05:01:05;6.05;;;3.50;;
43813;SDS011;29669;55.706;37.656;2023-05-07T05:03:33;8.13;;;3.03;;
43813;SDS011;29669;55.706;37.656;2023-05-07T05:06:01;4.25;;;2.58;;
43813;SDS011;29669;55.706;37.656;2023-05-07T05:08:32;3.10;;;2.40;;
43813;SDS011;29669;55.706;37.656;2023-05-07T05:11:02;5.30;;;2.72;;
43813;SDS011;29669;55.706;37.656;2023-05-07T05:13:32;4.13;;;2.55;;
43813;SDS011;29669;55.706;37.656;2023-05-07T05:16:08;6.70;;;2.65;;
43813;SDS011;29669;55.706;37.656;2023-05-07T05:18:35;4.38;;;2.72;;
43813;SDS011;29669;55.706;37.656;2023-05-07T05:21:03;2.75;;;1.77;;
43813;SDS011;29669;55.706;37.656;2023-05-07T05:23:32;2.72;;;2.42;;
43813;SDS011;29669;55.706;37.656;2023-05-07T05:26:00;4.20;;;2.42;;
43813;SDS011;29669;55.706;37.656;2023-05-07T05:28:31;2.80;;;2.20;;
43813;SDS011;29669;55.706;37.656;2023-05-07T05:30:58;4.03;;;2.45;;
43813;SDS011;29669;55.706;37.656;2023-05-07T05:33:30;4.38;;;2.10;;
43813;SDS011;29669;55.706;37.656;2023-05-07T05:36:03;2.92;;;1.23;;
43813;SDS011;29669;55.706;37.656;2023-05-07T05:38:32;3.10;;;2.25;;
43813;SDS011;29669;55.706;37.656;2023-05-07T05:41:00;3.13;;;2.13;;
43813;SDS011;29669;55.706;37.656;2023-05-07T05:43:29;3.45;;;2.20;;
43813;SDS011;29669;55.706;37.656;2023-05-07T05:45:58;2.00;;;1.80;;
43813;SDS011;29669;55.706;37.656;2023-05-07T05:48:27;1.90;;;1.52;;
43813;SDS011;29669;55.706;37.656;2023-05-07T05:50:56;2.42;;;1.73;;
43813;SDS011;29669;55.706;37.656;2023-05-07T05:53:25;3.78;;;1.90;;
43813;SDS011;29669;55.706;37.656;2023-05-07T05:55:53;5.38;;;2.05;;
43813;SDS011;29669;55.706;37.656;2023-05-07T05:58:21;8.05;;;3.10;;
43813;SDS011;29669;55.706;37.656;2023-05-07T06:00:55;2.92;;;2.63;;
43813;SDS011;29669;55.706;37.656;2023-05-07T06:03:25;5.95;;;3.83;;
43813;SDS011;29669;55.706;37.656;2023-05-07T06:05:54;2.05;;;1.75;;
43813;SDS011;29669;55.706;37.656;2023-05-07T06:08:22;4.07;;;2.60;;
43813;SDS011;29669;55.706;37.656;2023-05-07T06:10:50;2.80;;;2.00;;
43813;SDS011;29669;55.706;37.656;2023-05-07T06:13:19;2.42;;;2.13;;
43813;SDS011;29669;55.706;37.656;2023-05-07T06:15:48;2.10;;;1.90;;
43813;SDS011;29669;55.706;37.656;2023-05-07T06:18:17;6.05;;;2.20;;
43813;SDS011;29669;55.706;37.656;2023-05-07T06:20:44;4.43;;;2.17;;
43813;SDS011;29669;55.706;37.656;2023-05-07T06:25:48;2.75;;;2.05;;
43813;SDS011;29669;55.706;37.656;2023-05-07T06:28:24;3.50;;;1.85;;
43813;SDS011;29669;55.706;37.656;2023-05-07T06:30:51;8.05;;;2.28;;
43813;SDS011;29669;55.706;37.656;2023-05-07T06:33:19;3.70;;;1.67;;
43813;SDS011;29669;55.706;37.656;2023-05-07T06:35:46;1.92;;;1.67;;
43813;SDS011;29669;55.706;37.656;2023-05-07T06:38:14;3.38;;;1.95;;
43813;SDS011;29669;55.706;37.656;2023-05-07T06:40:43;1.95;;;1.75;;
43813;SDS011;29669;55.706;37.656;2023-05-07T06:43:15;2.10;;;1.90;;
43813;SDS011;29669;55.706;37.656;2023-05-07T06:45:52;2.25;;;2.00;;
43813;SDS011;29669;55.706;37.656;2023-05-07T06:48:20;1.88;;;1.65;;
43813;SDS011;29669;55.706;37.656;2023-05-07T06:50:58;2.25;;;1.83;;
43813;SDS011;29669;55.706;37.656;2023-05-07T06:53:28;6.88;;;1.70;;
43813;SDS011;29669;55.706;37.656;2023-05-07T06:55:59;6.78;;;2.10;;
43813;SDS011;29669;55.706;37.656;2023-05-07T06:58:27;3.55;;;1.90;;
43813;SDS011;29669;55.706;37.656;2023-05-07T07:00:55;1.60;;;1.45;;
43813;SDS011;29669;55.706;37.656;2023-05-07T07:03:23;2.83;;;1.80;;
43813;SDS011;29669;55.706;37.656;2023-05-07T07:05:52;2.78;;;1.77;;
43813;SDS011;29669;55.706;37.656;2023-05-07T07:08:21;1.70;;;1.60;;
43813;SDS011;29669;55.706;37.656;2023-05-07T07:10:51;3.17;;;2.00;;
43813;SDS011;29669;55.706;37.656;2023-05-07T07:13:18;6.80;;;2.83;;
43813;SDS011;29669;55.706;37.656;2023-05-07T07:15:47;2.00;;;1.80;;
43813;SDS011;29669;55.706;37.656;2023-05-07T07:18:16;3.00;;;1.80;;
43813;SDS011;29669;55.706;37.656;2023-05-07T07:20:46;2.70;;;1.92;;
43813;SDS011;29669;55.706;37.656;2023-05-07T07:23:14;3.13;;;1.70;;
43813;SDS011;29669;55.706;37.656;2023-05-07T07:25:41;2.40;;;1.50;;
43813;SDS011;29669;55.706;37.656;2023-05-07T07:28:10;1.75;;;1.52;;
43813;SDS011;29669;55.706;37.656;2023-05-07T07:30:38;1.77;;;1.48;;
43813;SDS011;29669;55.706;37.656;2023-05-07T07:33:06;1.60;;;1.42;;
43813;SDS011;29669;55.706;37.656;2023-05-07T07:35:36;3.05;;;1.73;;
43813;SDS011;29669;55.706;37.656;2023-05-07T07:38:05;2.85;;;1.85;;
43813;SDS011;29669;55.706;37.656;2023-05-07T07:40:36;2.90;;;1.63;;
43813;SDS011;29669;55.706;37.656;2023-05-07T07:43:06;2.60;;;1.55;;
43813;SDS011;29669;55.706;37.656;2023-05-07T07:45:34;2.78;;;1.75;;
43813;SDS011;29669;55.706;37.656;2023-05-07T07:48:02;5.63;;;1.60;;
43813;SDS011;29669;55.706;37.656;2023-05-07T07:50:33;4.32;;;1.55;;
43813;SDS011;29669;55.706;37.656;2023-05-07T07:53:12;1.25;;;1.15;;
43813;SDS011;29669;55.706;37.656;2023-05-07T07:55:40;3.50;;;1.90;;
43813;SDS011;29669;55.706;37.656;2023-05-07T07:58:10;3.80;;;1.90;;
43813;SDS011;29669;55.706;37.656;2023-05-07T08:00:39;1.73;;;1.60;;
43813;SDS011;29669;55.706;37.656;2023-05-07T08:03:10;2.65;;;1.80;;
43813;SDS011;29669;55.706;37.656;2023-05-07T08:05:43;1.42;;;1.27;;
43813;SDS011;29669;55.706;37.656;2023-05-07T08:08:11;2.97;;;1.52;;
43813;SDS011;29669;55.706;37.656;2023-05-07T08:10:40;4.55;;;1.63;;
43813;SDS011;29669;55.706;37.656;2023-05-07T08:13:17;1.98;;;1.70;;
43813;SDS011;29669;55.706;37.656;2023-05-07T08:15:46;1.40;;;1.30;;
43813;SDS011;29669;55.706;37.656;2023-05-07T08:18:14;1.45;;;1.35;;
43813;SDS011;29669;55.706;37.656;2023-05-07T08:20:44;3.83;;;2.80;;
43813;SDS011;29669;55.706;37.656;2023-05-07T08:23:16;4.20;;;1.40;;
43813;SDS011;29669;55.706;37.656;2023-05-07T08:25:45;8.57;;;2.42;;
43813;SDS011;29669;55.706;37.656;2023-05-07T08:28:13;1.63;;;1.30;;
43813;SDS011;29669;55.706;37.656;2023-05-07T08:30:41;4.88;;;1.85;;
43813;SDS011;29669;55.706;37.656;2023-05-07T08:33:09;2.85;;;1.50;;
43813;SDS011;29669;55.706;37.656;2023-05-07T08:35:37;2.00;;;1.73;;
43813;SDS011;29669;55.706;37.656;2023-05-07T08:38:06;3.85;;;1.50;;
43813;SDS011;29669;55.706;37.656;2023-05-07T08:40:38;8.00;;;2.33;;
43813;SDS011;29669;55.706;37.656;2023-05-07T08:43:14;1.92;;;1.75;;
43813;SDS011;29669;55.706;37.656;2023-05-07T08:45:44;3.25;;;1.83;;
43813;SDS011;29669;55.706;37.656;2023-05-07T08:48:16;4.10;;;1.77;;
43813;SDS011;29669;55.706;37.656;2023-05-07T08:50:57;1.50;;;1.40;;
43813;SDS011;29669;55.706;37.656;2023-05-07T08:53:25;3.58;;;1.48;;
43813;SDS011;29669;55.706;37.656;2023-05-07T08:55:54;3.38;;;1.77;;
43813;SDS011;29669;55.706;37.656;2023-05-07T08:58:22;3.60;;;1.58;;
43813;SDS011;29669;55.706;37.656;2023-05-07T09:00:51;2.13;;;1.63;;
43813;SDS011;29669;55.706;37.656;2023-05-07T09:03:22;1.70;;;1.38;;
43813;SDS011;29669;55.706;37.656;2023-05-07T09:05:52;1.58;;;1.48;;
43813;SDS011;29669;55.706;37.656;2023-05-07T09:08:23;2.53;;;1.33;;
43813;SDS011;29669;55.706;37.656;2023-05-07T09:10:55;3.65;;;1.38;;
43813;SDS011;29669;55.706;37.656;2023-05-07T09:13:23;1.88;;;1.40;;
43813;SDS011;29669;55.706;37.656;2023-05-07T09:15:52;3.08;;;1.50;;
43813;SDS011;29669;55.706;37.656;2023-05-07T09:18:20;2.40;;;1.65;;
43813;SDS011;29669;55.706;37.656;2023-05-07T09:20:49;3.00;;;2.10;;
43813;SDS011;29669;55.706;37.656;2023-05-07T09:23:20;2.70;;;1.67;;
43813;SDS011;29669;55.706;37.656;2023-05-07T09:25:48;1.80;;;1.42;;
43813;SDS011;29669;55.706;37.656;2023-05-07T09:28:25;1.75;;;1.20;;
43813;SDS011;29669;55.706;37.656;2023-05-07T09:30:53;2.65;;;1.30;;
43813;SDS011;29669;55.706;37.656;2023-05-07T09:33:24;2.30;;;1.50;;
43813;SDS011;29669;55.706;37.656;2023-05-07T09:35:55;2.65;;;1.40;;
43813;SDS011;29669;55.706;37.656;2023-05-07T09:38:23;2.25;;;1.30;;
43813;SDS011;29669;55.706;37.656;2023-05-07T09:43:41;1.95;;;1.75;;
43813;SDS011;29669;55.706;37.656;2023-05-07T09:46:13;1.65;;;1.48;;
43813;SDS011;29669;55.706;37.656;2023-05-07T09:48:47;1.70;;;1.60;;
43813;SDS011;29669;55.706;37.656;2023-05-07T09:53:59;7.90;;;3.92;;
43813;SDS011;29669;55.706;37.656;2023-05-07T09:56:34;1.63;;;1.52;;
43813;SDS011;29669;55.706;37.656;2023-05-07T09:59:05;1.85;;;1.50;;
43813;SDS011;29669;55.706;37.656;2023-05-07T10:01:38;6.28;;;3.35;;
43813;SDS011;29669;55.706;37.656;2023-05-07T10:04:08;3.88;;;2.17;;
43813;SDS011;29669;55.706;37.656;2023-05-07T10:06:38;2.08;;;1.58;;
43813;SDS011;29669;55.706;37.656;2023-05-07T10:09:06;6.55;;;2.30;;
43813;SDS011;29669;55.706;37.656;2023-05-07T10:11:34;3.25;;;1.55;;
43813;SDS011;29669;55.706;37.656;2023-05-07T10:14:03;4.95;;;1.90;;
43813;SDS011;29669;55.706;37.656;2023-05-07T10:16:34;2.17;;;1.83;;
43813;SDS011;29669;55.706;37.656;2023-05-07T10:19:08;1.83;;;1.50;;
43813;SDS011;29669;55.706;37.656;2023-05-07T10:22:04;2.03;;;1.25;;
43813;SDS011;29669;55.706;37.656;2023-05-07T10:24:36;3.58;;;1.77;;
43813;SDS011;29669;55.706;37.656;2023-05-07T10:27:11;4.88;;;2.28;;
43813;SDS011;29669;55.706;37.656;2023-05-07T10:29:47;4.45;;;1.80;;
43813;SDS011;29669;55.706;37.656;2023-05-07T10:32:39;4.03;;;1.90;;
43813;SDS011;29669;55.706;37.656;2023-05-07T10:35:23;2.03;;;1.70;;
43813;SDS011;29669;55.706;37.656;2023-05-07T10:37:54;1.90;;;1.70;;
43813;SDS011;29669;55.706;37.656;2023-05-07T10:40:24;3.03;;;1.70;;
43813;SDS011;29669;55.706;37.656;2023-05-07T10:42:57;2.92;;;1.63;;
43813;SDS011;29669;55.706;37.656;2023-05-07T10:45:37;3.50;;;1.80;;
43813;SDS011;29669;55.706;37.656;2023-05-07T10:48:06;1.88;;;1.42;;
43813;SDS011;29669;55.706;37.656;2023-05-07T10:51:20;5.20;;;1.90;;
43813;SDS011;29669;55.706;37.656;2023-05-07T11:04:23;3.53;;;1.80;;
43813;SDS011;29669;55.706;37.656;2023-05-07T11:07:29;3.80;;;1.40;;
43813;SDS011;29669;55.706;37.656;2023-05-07T11:10:06;2.95;;;1.98;;
43813;SDS011;29669;55.706;37.656;2023-05-07T11:12:57;3.15;;;1.92;;
43813;SDS011;29669;55.706;37.656;2023-05-07T11:15:39;6.88;;;2.28;;
43813;SDS011;29669;55.706;37.656;2023-05-07T11:18:24;2.33;;;1.70;;
43813;SDS011;29669;55.706;37.656;2023-05-07T11:20:54;6.35;;;3.03;;
43813;SDS011;29669;55.706;37.656;2023-05-07T11:26:18;5.55;;;1.85;;
43813;SDS011;29669;55.706;37.656;2023-05-07T11:28:48;3.00;;;2.25;;
43813;SDS011;29669;55.706;37.656;2023-05-07T11:31:22;3.72;;;1.67;;
43813;SDS011;29669;55.706;37.656;2023-05-07T11:33:52;3.15;;;2.33;;
43813;SDS011;29669;55.706;37.656;2023-05-07T11:36:22;3.60;;;1.83;;
43813;SDS011;29669;55.706;37.656;2023-05-07T11:38:53;3.00;;;1.50;;
43813;SDS011;29669;55.706;37.656;2023-05-07T11:41:20;4.88;;;2.40;;
43813;SDS011;29669;55.706;37.656;2023-05-07T11:43:53;3.10;;;1.80;;
43813;SDS011;29669;55.706;37.656;2023-05-07T11:46:24;5.55;;;1.50;;
43813;SDS011;29669;55.706;37.656;2023-05-07T11:48:55;4.32;;;2.80;;
43813;SDS011;29669;55.706;37.656;2023-05-07T11:51:24;6.57;;;2.28;;
43813;SDS011;29669;55.706;37.656;2023-05-07T11:53:55;5.35;;;2.30;;
43813;SDS011;29669;55.706;37.656;2023-05-07T11:56:23;3.35;;;2.00;;
43813;SDS011;29669;55.706;37.656;2023-05-07T11:58:51;1.60;;;1.50;;
43813;SDS011;29669;55.706;37.656;2023-05-07T12:01:19;1.88;;;1.58;;
43813;SDS011;29669;55.706;37.656;2023-05-07T12:03:47;4.63;;;1.52;;
43813;SDS011;29669;55.706;37.656;2023-05-07T12:06:16;1.60;;;1.50;;
43813;SDS011;29669;55.706;37.656;2023-05-07T12:08:44;1.92;;;1.60;;
43813;SDS011;29669;55.706;37.656;2023-05-07T12:11:16;2.75;;;1.80;;
43813;SDS011;29669;55.706;37.656;2023-05-07T12:13:50;1.80;;;1.70;;
43813;SDS011;29669;55.706;37.656;2023-05-07T12:16:17;4.03;;;1.92;;
43813;SDS011;29669;55.706;37.656;2023-05-07T12:18:46;1.92;;;1.50;;
43813;SDS011;29669;55.706;37.656;2023-05-07T12:21:14;2.03;;;1.63;;
43813;SDS011;29669;55.706;37.656;2023-05-07T12:23:44;1.63;;;1.30;;
43813;SDS011;29669;55.706;37.656;2023-05-07T12:26:12;3.78;;;2.15;;
43813;SDS011;29669;55.706;37.656;2023-05-07T12:28:40;6.03;;;2.58;;
43813;SDS011;29669;55.706;37.656;2023-05-07T12:31:08;3.58;;;1.70;;
43813;SDS011;29669;55.706;37.656;2023-05-07T12:33:36;1.50;;;1.40;;
43813;SDS011;29669;55.706;37.656;2023-05-07T12:36:05;1.95;;;1.83;;
43813;SDS011;29669;55.706;37.656;2023-05-07T12:38:35;4.43;;;2.60;;
43813;SDS011;29669;55.706;37.656;2023-05-07T12:41:04;2.20;;;2.00;;
43813;SDS011;29669;55.706;37.656;2023-05-07T12:43:34;6.82;;;3.85;;
43813;SDS011;29669;55.706;37.656;2023-05-07T12:46:06;3.00;;;2.00;;
43813;SDS011;29669;55.706;37.656;2023-05-07T12:48:38;3.08;;;1.58;;
43813;SDS011;29669;55.706;37.656;2023-05-07T12:51:10;0.80;;;0.80;;
43813;SDS011;29669;55.706;37.656;2023-05-07T12:53:40;2.85;;;1.27;;
43813;SDS011;29669;55.706;37.656;2023-05-07T12:56:10;4.07;;;2.45;;
43813;SDS011;29669;55.706;37.656;2023-05-07T12:58:38;4.55;;;1.80;;
43813;SDS011;29669;55.706;37.656;2023-05-07T13:01:06;9.02;;;2.67;;
43813;SDS011;29669;55.706;37.656;2023-05-07T13:03:35;4.40;;;1.80;;
43813;SDS011;29669;55.706;37.656;2023-05-07T13:06:05;1.83;;;1.40;;
43813;SDS011;29669;55.706;37.656;2023-05-07T13:08:38;3.05;;;1.67;;
43813;SDS011;29669;55.706;37.656;2023-05-07T13:11:10;2.47;;;1.50;;
43813;SDS011;29669;55.706;37.656;2023-05-07T13:13:40;1.83;;;1.73;;
43813;SDS011;29669;55.706;37.656;2023-05-07T13:16:09;5.38;;;1.88;;
43813;SDS011;29669;55.706;37.656;2023-05-07T13:18:39;2.67;;;1.90;;
43813;SDS011;29669;55.706;37.656;2023-05-07T13:21:08;3.25;;;1.98;;
43813;SDS011;29669;55.706;37.656;2023-05-07T13:23:37;3.55;;;1.73;;
43813;SDS011;29669;55.706;37.656;2023-05-07T13:26:05;4.05;;;2.58;;
43813;SDS011;29669;55.706;37.656;2023-05-07T13:28:52;1.88;;;1.50;;
43813;SDS011;29669;55.706;37.656;2023-05-07T13:31:22;2.30;;;1.73;;
43813;SDS011;29669;55.706;37.656;2023-05-07T13:33:50;2.03;;;1.70;;
43813;SDS011;29669;55.706;37.656;2023-05-07T13:36:19;1.77;;;1.67;;
43813;SDS011;29669;55.706;37.656;2023-05-07T13:38:47;3.47;;;2.00;;
43813;SDS011;29669;55.706;37.656;2023-05-07T13:41:14;2.72;;;1.95;;
43813;SDS011;29669;55.706;37.656;2023-05-07T13:43:42;7.47;;;3.55;;
43813;SDS011;29669;55.706;37.656;2023-05-07T13:46:11;3.53;;;2.35;;
43813;SDS011;29669;55.706;37.656;2023-05-07T13:48:38;2.10;;;1.83;;
43813;SDS011;29669;55.706;37.656;2023-05-07T13:51:06;3.00;;;1.95;;
43813;SDS011;29669;55.706;37.656;2023-05-07T13:53:34;3.55;;;2.00;;
43813;SDS011;29669;55.706;37.656;2023-05-07T13:56:03;2.63;;;2.20;;
43813;SDS011;29669;55.706;37.656;2023-05-07T13:58:31;3.35;;;2.05;;
43813;SDS011;29669;55.706;37.656;2023-05-07T14:00:59;3.33;;;2.22;;
43813;SDS011;29669;55.706;37.656;2023-05-07T14:03:27;2.85;;;2.15;;
43813;SDS011;29669;55.706;37.656;2023-05-07T14:05:54;2.58;;;1.67;;
43813;SDS011;29669;55.706;37.656;2023-05-07T14:08:22;3.25;;;1.45;;
43813;SDS011;29669;55.706;37.656;2023-05-07T14:10:50;1.90;;;1.60;;
43813;SDS011;29669;55.706;37.656;2023-05-07T14:13:18;5.68;;;1.90;;
43813;SDS011;29669;55.706;37.656;2023-05-07T14:15:46;2.55;;;2.00;;
43813;SDS011;29669;55.706;37.656;2023-05-07T14:18:15;5.18;;;3.08;;
43813;SDS011;29669;55.706;37.656;2023-05-07T14:20:43;1.60;;;1.50;;
43813;SDS011;29669;55.706;37.656;2023-05-07T14:23:13;2.17;;;1.58;;
43813;SDS011;29669;55.706;37.656;2023-05-07T14:25:41;4.68;;;2.08;;
43813;SDS011;29669;55.706;37.656;2023-05-07T14:28:10;2.50;;;1.75;;
43813;SDS011;29669;55.706;37.656;2023-05-07T14:30:38;2.03;;;1.85;;
43813;SDS011;29669;55.706;37.656;2023-05-07T14:33:06;2.13;;;1.75;;
43813;SDS011;29669;55.706;37.656;2023-05-07T14:35:33;3.78;;;1.75;;
43813;SDS011;29669;55.706;37.656;2023-05-07T14:38:01;4.82;;;2.10;;
43813;SDS011;29669;55.706;37.656;2023-05-07T14:40:29;2.30;;;2.10;;
43813;SDS011;29669;55.706;37.656;2023-05-07T14:42:56;3.35;;;1.80;;
43813;SDS011;29669;55.706;37.656;2023-05-07T14:45:24;2.78;;;1.88;;
43813;SDS011;29669;55.706;37.656;2023-05-07T14:47:52;2.50;;;2.13;;
43813;SDS011;29669;55.706;37.656;2023-05-07T14:50:20;3.15;;;1.55;;
43813;SDS011;29669;55.706;37.656;2023-05-07T14:52:48;8.20;;;4.93;;
43813;SDS011;29669;55.706;37.656;2023-05-07T14:55:16;8.27;;;2.67;;
43813;SDS011;29669;55.706;37.656;2023-05-07T14:57:43;4.35;;;2.30;;
43813;SDS011;29669;55.706;37.656;2023-05-07T15:00:11;4.00;;;3.00;;
43813;SDS011;29669;55.706;37.656;2023-05-07T15:02:40;7.70;;;2.38;;
43813;SDS011;29669;55.706;37.656;2023-05-07T15:05:08;2.92;;;2.15;;
43813;SDS011;29669;55.706;37.656;2023-05-07T15:07:36;2.80;;;2.15;;
43813;SDS011;29669;55.706;37.656;2023-05-07T15:10:04;5.22;;;2.55;;